sensor_id;sensor_type;location;lat;lon;timestamp;P1;durP1;ratioP1;P2;durP2;ratioP2
6300;SDS011;3183;51.010;6.898;2022-08-06T00:00:50;2.80;;;1.33;;
6300;SDS011;3183;51.010;6.898;2022-08-06T00:03:19;3.97;;;1.80;;
6300;SDS011;3183;51.010;6.898;2022-08-06T00:05:46;7.90;;;1.70;;
6300;SDS011;3183;51.010;6.898;2022-08-06T00:08:13;3.03;;;1.73;;
6300;SDS011;3183;51.010;6.898;2022-08-06T00:10:40;5.13;;;1.93;;
6300;SDS011;3183;51.010;6.898;2022-08-06T00:13:07;2.93;;;2.10;;
6300;SDS011;3183;51.010;6.898;2022-08-06T00:15:34;6.00;;;2.60;;
6300;SDS011;3183;51.010;6.898;2022-08-06T00:18:02;5.07;;;2.30;;
6300;SDS011;3183;51.010;6.898;2022-08-06T00:20:30;9.77;;;2.57;;
6300;SDS011;3183;51.010;6.898;2022-08-06T00:22:57;3.63;;;2.07;;
6300;SDS011;3183;51.010;6.898;2022-08-06T00:25:25;4.00;;;1.70;;
6300;SDS011;3183;51.010;6.898;2022-08-06T00:27:52;3.60;;;1.80;;
6300;SDS011;3183;51.010;6.898;2022-08-06T00:30:19;4.97;;;2.13;;
6300;SDS011;3183;51.010;6.898;2022-08-06T00:32:46;6.43;;;2.03;;
6300;SDS011;3183;51.010;6.898;2022-08-06T00:35:13;4.93;;;2.00;;
6300;SDS011;3183;51.010;6.898;2022-08-06T00:37:42;5.53;;;1.60;;
6300;SDS011;3183;51.010;6.898;2022-08-06T00:40:09;4.60;;;1.77;;
6300;SDS011;3183;51.010;6.898;2022-08-06T00:42:37;7.60;;;1.90;;
6300;SDS011;3183;51.010;6.898;2022-08-06T00:45:04;2.87;;;1.90;;
6300;SDS011;3183;51.010;6.898;2022-08-06T00:47:33;4.63;;;2.00;;
6300;SDS011;3183;51.010;6.898;2022-08-06T00:50:01;12.40;;;2.40;;
6300;SDS011;3183;51.010;6.898;2022-08-06T00:52:28;7.80;;;1.80;;
6300;SDS011;3183;51.010;6.898;2022-08-06T00:54:56;11.20;;;2.23;;
6300;SDS011;3183;51.010;6.898;2022-08-06T00:57:23;3.70;;;2.20;;
6300;SDS011;3183;51.010;6.898;2022-08-06T00:59:50;8.67;;;2.17;;
6300;SDS011;3183;51.010;6.898;2022-08-06T01:02:18;6.03;;;2.10;;
6300;SDS011;3183;51.010;6.898;2022-08-06T01:04:45;5.57;;;2.03;;
6300;SDS011;3183;51.010;6.898;2022-08-06T01:07:12;5.40;;;2.20;;
6300;SDS011;3183;51.010;6.898;2022-08-06T01:09:39;4.50;;;1.90;;
6300;SDS011;3183;51.010;6.898;2022-08-06T01:12:08;7.43;;;2.10;;
6300;SDS011;3183;51.010;6.898;2022-08-06T01:14:35;6.27;;;1.93;;
6300;SDS011;3183;51.010;6.898;2022-08-06T01:17:02;5.10;;;1.90;;
6300;SDS011;3183;51.010;6.898;2022-08-06T01:19:41;4.70;;;2.57;;
6300;SDS011;3183;51.010;6.898;2022-08-06T01:22:13;9.13;;;2.03;;
6300;SDS011;3183;51.010;6.898;2022-08-06T01:24:47;11.83;;;2.03;;
6300;SDS011;3183;51.010;6.898;2022-08-06T01:27:25;7.77;;;2.50;;
6300;SDS011;3183;51.010;6.898;2022-08-06T01:29:57;5.73;;;2.10;;
6300;SDS011;3183;51.010;6.898;2022-08-06T01:32:27;2.40;;;2.20;;
6300;SDS011;3183;51.010;6.898;2022-08-06T01:34:58;4.47;;;1.93;;
6300;SDS011;3183;51.010;6.898;2022-08-06T01:37:28;1.90;;;1.70;;
6300;SDS011;3183;51.010;6.898;2022-08-06T01:39:57;10.13;;;2.50;;
6300;SDS011;3183;51.010;6.898;2022-08-06T01:42:26;4.63;;;2.23;;
6300;SDS011;3183;51.010;6.898;2022-08-06T01:44:56;4.10;;;2.00;;
6300;SDS011;3183;51.010;6.898;2022-08-06T01:47:26;4.43;;;2.20;;
6300;SDS011;3183;51.010;6.898;2022-08-06T01:49:55;4.33;;;2.00;;
6300;SDS011;3183;51.010;6.898;2022-08-06T01:52:23;10.60;;;3.53;;
6300;SDS011;3183;51.010;6.898;2022-08-06T01:54:50;11.60;;;2.70;;
6300;SDS011;3183;51.010;6.898;2022-08-06T01:57:19;9.90;;;2.70;;
6300;SDS011;3183;51.010;6.898;2022-08-06T01:59:50;4.93;;;2.53;;
6300;SDS011;3183;51.010;6.898;2022-08-06T02:02:20;2.83;;;2.10;;
6300;SDS011;3183;51.010;6.898;2022-08-06T02:04:49;8.37;;;3.00;;
6300;SDS011;3183;51.010;6.898;2022-08-06T02:07:18;6.30;;;2.63;;
6300;SDS011;3183;51.010;6.898;2022-08-06T02:09:46;6.60;;;2.63;;
6300;SDS011;3183;51.010;6.898;2022-08-06T02:12:15;11.17;;;2.20;;
6300;SDS011;3183;51.010;6.898;2022-08-06T02:14:46;8.70;;;2.67;;
6300;SDS011;3183;51.010;6.898;2022-08-06T02:17:15;2.93;;;2.23;;
6300;SDS011;3183;51.010;6.898;2022-08-06T02:19:44;5.10;;;2.50;;
6300;SDS011;3183;51.010;6.898;2022-08-06T02:22:12;9.30;;;2.60;;
6300;SDS011;3183;51.010;6.898;2022-08-06T02:24:40;5.30;;;2.67;;
6300;SDS011;3183;51.010;6.898;2022-08-06T02:27:08;8.07;;;2.47;;
6300;SDS011;3183;51.010;6.898;2022-08-06T02:29:36;6.97;;;2.43;;
6300;SDS011;3183;51.010;6.898;2022-08-06T02:32:04;7.90;;;3.13;;
6300;SDS011;3183;51.010;6.898;2022-08-06T02:34:32;4.90;;;2.50;;
6300;SDS011;3183;51.010;6.898;2022-08-06T02:37:02;3.97;;;2.47;;
6300;SDS011;3183;51.010;6.898;2022-08-06T02:39:32;4.90;;;2.33;;
6300;SDS011;3183;51.010;6.898;2022-08-06T02:42:00;7.23;;;2.30;;
6300;SDS011;3183;51.010;6.898;2022-08-06T02:44:33;5.10;;;2.40;;
6300;SDS011;3183;51.010;6.898;2022-08-06T02:47:02;5.80;;;2.20;;
6300;SDS011;3183;51.010;6.898;2022-08-06T02:49:33;5.87;;;2.90;;
6300;SDS011;3183;51.010;6.898;2022-08-06T02:52:03;4.27;;;2.50;;
6300;SDS011;3183;51.010;6.898;2022-08-06T02:54:32;4.80;;;2.57;;
6300;SDS011;3183;51.010;6.898;2022-08-06T02:57:02;2.70;;;2.23;;
6300;SDS011;3183;51.010;6.898;2022-08-06T02:59:31;3.20;;;2.30;;
6300;SDS011;3183;51.010;6.898;2022-08-06T03:02:00;3.10;;;2.17;;
6300;SDS011;3183;51.010;6.898;2022-08-06T03:04:28;6.13;;;2.57;;
6300;SDS011;3183;51.010;6.898;2022-08-06T03:06:57;6.23;;;2.97;;
6300;SDS011;3183;51.010;6.898;2022-08-06T03:09:25;5.13;;;2.60;;
6300;SDS011;3183;51.010;6.898;2022-08-06T03:11:52;7.27;;;2.53;;
6300;SDS011;3183;51.010;6.898;2022-08-06T03:14:21;3.33;;;2.27;;
6300;SDS011;3183;51.010;6.898;2022-08-06T03:16:48;4.83;;;2.77;;
6300;SDS011;3183;51.010;6.898;2022-08-06T03:19:17;6.30;;;2.33;;
6300;SDS011;3183;51.010;6.898;2022-08-06T03:21:44;4.53;;;2.93;;
6300;SDS011;3183;51.010;6.898;2022-08-06T03:24:13;6.87;;;2.40;;
6300;SDS011;3183;51.010;6.898;2022-08-06T03:26:40;10.63;;;2.47;;
6300;SDS011;3183;51.010;6.898;2022-08-06T03:29:08;10.00;;;2.70;;
6300;SDS011;3183;51.010;6.898;2022-08-06T03:31:36;8.80;;;2.70;;
6300;SDS011;3183;51.010;6.898;2022-08-06T03:34:03;5.03;;;2.50;;
6300;SDS011;3183;51.010;6.898;2022-08-06T03:36:31;6.93;;;2.67;;
6300;SDS011;3183;51.010;6.898;2022-08-06T03:39:00;5.20;;;2.60;;
6300;SDS011;3183;51.010;6.898;2022-08-06T03:41:29;6.50;;;3.10;;
6300;SDS011;3183;51.010;6.898;2022-08-06T03:43:57;5.17;;;2.40;;
6300;SDS011;3183;51.010;6.898;2022-08-06T03:46:25;12.83;;;3.73;;
6300;SDS011;3183;51.010;6.898;2022-08-06T03:48:54;2.67;;;2.23;;
6300;SDS011;3183;51.010;6.898;2022-08-06T03:51:23;7.00;;;2.50;;
6300;SDS011;3183;51.010;6.898;2022-08-06T03:53:51;5.70;;;2.30;;
6300;SDS011;3183;51.010;6.898;2022-08-06T03:56:20;4.03;;;2.37;;
6300;SDS011;3183;51.010;6.898;2022-08-06T03:58:50;12.77;;;2.83;;
6300;SDS011;3183;51.010;6.898;2022-08-06T04:01:20;5.13;;;2.50;;
6300;SDS011;3183;51.010;6.898;2022-08-06T04:03:48;4.83;;;2.70;;
6300;SDS011;3183;51.010;6.898;2022-08-06T04:06:15;4.97;;;3.00;;
6300;SDS011;3183;51.010;6.898;2022-08-06T04:08:44;4.50;;;2.70;;
6300;SDS011;3183;51.010;6.898;2022-08-06T04:11:11;6.77;;;2.90;;
6300;SDS011;3183;51.010;6.898;2022-08-06T04:13:39;10.73;;;3.10;;
6300;SDS011;3183;51.010;6.898;2022-08-06T04:16:07;3.30;;;2.50;;
6300;SDS011;3183;51.010;6.898;2022-08-06T04:18:35;3.97;;;2.83;;
6300;SDS011;3183;51.010;6.898;2022-08-06T04:21:04;7.13;;;2.83;;
6300;SDS011;3183;51.010;6.898;2022-08-06T04:23:32;10.53;;;2.73;;
6300;SDS011;3183;51.010;6.898;2022-08-06T04:26:02;8.03;;;2.83;;
6300;SDS011;3183;51.010;6.898;2022-08-06T04:28:30;14.80;;;2.80;;
6300;SDS011;3183;51.010;6.898;2022-08-06T04:31:00;9.03;;;2.80;;
6300;SDS011;3183;51.010;6.898;2022-08-06T04:33:30;8.43;;;4.00;;
6300;SDS011;3183;51.010;6.898;2022-08-06T04:35:58;9.23;;;3.00;;
6300;SDS011;3183;51.010;6.898;2022-08-06T04:38:30;3.90;;;2.60;;
6300;SDS011;3183;51.010;6.898;2022-08-06T04:40:57;3.80;;;3.03;;
6300;SDS011;3183;51.010;6.898;2022-08-06T04:43:25;3.97;;;2.93;;
6300;SDS011;3183;51.010;6.898;2022-08-06T04:45:53;18.23;;;3.47;;
6300;SDS011;3183;51.010;6.898;2022-08-06T04:48:20;9.10;;;2.47;;
6300;SDS011;3183;51.010;6.898;2022-08-06T04:50:49;11.40;;;2.13;;
6300;SDS011;3183;51.010;6.898;2022-08-06T04:53:17;7.83;;;3.33;;
6300;SDS011;3183;51.010;6.898;2022-08-06T04:55:45;4.33;;;2.43;;
6300;SDS011;3183;51.010;6.898;2022-08-06T04:58:13;6.77;;;3.17;;
6300;SDS011;3183;51.010;6.898;2022-08-06T05:00:41;6.07;;;3.17;;
6300;SDS011;3183;51.010;6.898;2022-08-06T05:03:09;2.93;;;2.37;;
6300;SDS011;3183;51.010;6.898;2022-08-06T05:05:37;6.10;;;3.83;;
6300;SDS011;3183;51.010;6.898;2022-08-06T05:08:06;5.60;;;3.17;;
6300;SDS011;3183;51.010;6.898;2022-08-06T05:10:36;5.90;;;2.90;;
6300;SDS011;3183;51.010;6.898;2022-08-06T05:13:04;14.77;;;3.83;;
6300;SDS011;3183;51.010;6.898;2022-08-06T05:15:33;6.87;;;2.90;;
6300;SDS011;3183;51.010;6.898;2022-08-06T05:18:02;8.50;;;2.80;;
6300;SDS011;3183;51.010;6.898;2022-08-06T05:20:32;13.63;;;3.33;;
6300;SDS011;3183;51.010;6.898;2022-08-06T05:23:00;8.77;;;3.40;;
6300;SDS011;3183;51.010;6.898;2022-08-06T05:25:30;9.00;;;4.10;;
6300;SDS011;3183;51.010;6.898;2022-08-06T05:27:57;16.10;;;3.33;;
6300;SDS011;3183;51.010;6.898;2022-08-06T05:30:26;6.33;;;3.03;;
6300;SDS011;3183;51.010;6.898;2022-08-06T05:32:53;6.10;;;3.20;;
6300;SDS011;3183;51.010;6.898;2022-08-06T05:35:20;4.47;;;2.33;;
6300;SDS011;3183;51.010;6.898;2022-08-06T05:37:48;5.80;;;2.80;;
6300;SDS011;3183;51.010;6.898;2022-08-06T05:40:15;8.00;;;2.80;;
6300;SDS011;3183;51.010;6.898;2022-08-06T05:42:43;9.63;;;2.63;;
6300;SDS011;3183;51.010;6.898;2022-08-06T05:45:11;5.23;;;2.23;;
6300;SDS011;3183;51.010;6.898;2022-08-06T05:47:39;2.70;;;2.20;;
6300;SDS011;3183;51.010;6.898;2022-08-06T05:50:09;5.17;;;3.07;;
6300;SDS011;3183;51.010;6.898;2022-08-06T05:52:37;7.50;;;2.63;;
6300;SDS011;3183;51.010;6.898;2022-08-06T05:55:11;5.60;;;2.43;;
6300;SDS011;3183;51.010;6.898;2022-08-06T05:57:42;6.43;;;3.00;;
6300;SDS011;3183;51.010;6.898;2022-08-06T06:00:13;6.37;;;2.67;;
6300;SDS011;3183;51.010;6.898;2022-08-06T06:02:42;6.20;;;2.70;;
6300;SDS011;3183;51.010;6.898;2022-08-06T06:05:10;5.17;;;2.87;;
6300;SDS011;3183;51.010;6.898;2022-08-06T06:07:37;5.73;;;2.90;;
6300;SDS011;3183;51.010;6.898;2022-08-06T06:10:05;5.10;;;2.77;;
6300;SDS011;3183;51.010;6.898;2022-08-06T06:12:33;10.70;;;2.63;;
6300;SDS011;3183;51.010;6.898;2022-08-06T06:15:00;9.30;;;3.00;;
6300;SDS011;3183;51.010;6.898;2022-08-06T06:17:37;6.23;;;3.13;;
6300;SDS011;3183;51.010;6.898;2022-08-06T06:20:12;6.13;;;2.97;;
6300;SDS011;3183;51.010;6.898;2022-08-06T06:22:43;8.70;;;3.87;;
6300;SDS011;3183;51.010;6.898;2022-08-06T06:25:13;11.20;;;3.50;;
6300;SDS011;3183;51.010;6.898;2022-08-06T06:27:43;4.97;;;2.47;;
6300;SDS011;3183;51.010;6.898;2022-08-06T06:30:14;13.53;;;3.00;;
6300;SDS011;3183;51.010;6.898;2022-08-06T06:32:44;5.53;;;2.57;;
6300;SDS011;3183;51.010;6.898;2022-08-06T06:35:15;6.37;;;3.13;;
6300;SDS011;3183;51.010;6.898;2022-08-06T06:37:46;5.60;;;2.93;;
6300;SDS011;3183;51.010;6.898;2022-08-06T06:40:18;5.73;;;2.60;;
6300;SDS011;3183;51.010;6.898;2022-08-06T06:42:51;14.73;;;3.50;;
6300;SDS011;3183;51.010;6.898;2022-08-06T06:45:23;7.47;;;3.03;;
6300;SDS011;3183;51.010;6.898;2022-08-06T06:47:55;8.00;;;2.40;;
6300;SDS011;3183;51.010;6.898;2022-08-06T06:50:26;8.40;;;2.63;;
6300;SDS011;3183;51.010;6.898;2022-08-06T06:52:53;11.77;;;2.77;;
6300;SDS011;3183;51.010;6.898;2022-08-06T06:55:22;6.53;;;2.50;;
6300;SDS011;3183;51.010;6.898;2022-08-06T06:57:51;6.10;;;2.10;;
6300;SDS011;3183;51.010;6.898;2022-08-06T07:00:19;3.27;;;2.00;;
6300;SDS011;3183;51.010;6.898;2022-08-06T07:02:47;4.23;;;2.57;;
6300;SDS011;3183;51.010;6.898;2022-08-06T07:05:16;10.33;;;2.67;;
6300;SDS011;3183;51.010;6.898;2022-08-06T07:07:44;5.30;;;2.20;;
6300;SDS011;3183;51.010;6.898;2022-08-06T07:10:12;4.63;;;1.77;;
6300;SDS011;3183;51.010;6.898;2022-08-06T07:12:42;7.47;;;2.00;;
6300;SDS011;3183;51.010;6.898;2022-08-06T07:15:09;10.60;;;2.60;;
6300;SDS011;3183;51.010;6.898;2022-08-06T07:17:38;11.47;;;2.07;;
6300;SDS011;3183;51.010;6.898;2022-08-06T07:20:07;4.77;;;2.10;;
6300;SDS011;3183;51.010;6.898;2022-08-06T07:22:39;2.70;;;1.70;;
6300;SDS011;3183;51.010;6.898;2022-08-06T07:25:07;5.93;;;2.00;;
6300;SDS011;3183;51.010;6.898;2022-08-06T07:27:37;3.83;;;2.07;;
6300;SDS011;3183;51.010;6.898;2022-08-06T07:30:05;5.20;;;2.10;;
6300;SDS011;3183;51.010;6.898;2022-08-06T07:32:33;3.63;;;1.57;;
6300;SDS011;3183;51.010;6.898;2022-08-06T07:35:01;6.40;;;1.90;;
6300;SDS011;3183;51.010;6.898;2022-08-06T07:37:29;13.00;;;2.00;;
6300;SDS011;3183;51.010;6.898;2022-08-06T07:39:59;5.27;;;1.67;;
6300;SDS011;3183;51.010;6.898;2022-08-06T07:42:27;3.40;;;1.30;;
6300;SDS011;3183;51.010;6.898;2022-08-06T07:44:56;4.70;;;1.20;;
6300;SDS011;3183;51.010;6.898;2022-08-06T07:47:25;6.83;;;1.37;;
6300;SDS011;3183;51.010;6.898;2022-08-06T07:49:54;7.87;;;1.53;;
6300;SDS011;3183;51.010;6.898;2022-08-06T07:52:22;6.37;;;1.30;;
6300;SDS011;3183;51.010;6.898;2022-08-06T07:54:49;4.50;;;1.50;;
6300;SDS011;3183;51.010;6.898;2022-08-06T07:57:18;10.33;;;1.40;;
6300;SDS011;3183;51.010;6.898;2022-08-06T07:59:45;4.00;;;1.40;;
6300;SDS011;3183;51.010;6.898;2022-08-06T08:02:13;6.50;;;1.40;;
6300;SDS011;3183;51.010;6.898;2022-08-06T08:04:40;7.50;;;1.60;;
6300;SDS011;3183;51.010;6.898;2022-08-06T08:07:25;11.93;;;1.73;;
6300;SDS011;3183;51.010;6.898;2022-08-06T08:09:53;4.43;;;1.40;;
6300;SDS011;3183;51.010;6.898;2022-08-06T08:12:22;3.83;;;2.23;;
6300;SDS011;3183;51.010;6.898;2022-08-06T08:14:50;5.83;;;1.50;;
6300;SDS011;3183;51.010;6.898;2022-08-06T08:17:18;2.57;;;1.50;;
6300;SDS011;3183;51.010;6.898;2022-08-06T08:19:45;2.53;;;1.03;;
6300;SDS011;3183;51.010;6.898;2022-08-06T08:22:13;5.00;;;0.73;;
6300;SDS011;3183;51.010;6.898;2022-08-06T08:24:41;6.53;;;1.07;;
6300;SDS011;3183;51.010;6.898;2022-08-06T08:27:09;4.67;;;1.10;;
6300;SDS011;3183;51.010;6.898;2022-08-06T08:29:38;5.90;;;1.50;;
6300;SDS011;3183;51.010;6.898;2022-08-06T08:32:06;4.07;;;0.90;;
6300;SDS011;3183;51.010;6.898;2022-08-06T08:34:34;3.90;;;0.83;;
6300;SDS011;3183;51.010;6.898;2022-08-06T08:37:01;3.60;;;0.80;;
6300;SDS011;3183;51.010;6.898;2022-08-06T08:39:29;2.30;;;0.80;;
6300;SDS011;3183;51.010;6.898;2022-08-06T08:41:58;2.93;;;1.20;;
6300;SDS011;3183;51.010;6.898;2022-08-06T08:44:26;4.10;;;1.00;;
6300;SDS011;3183;51.010;6.898;2022-08-06T08:46:56;7.00;;;1.10;;
6300;SDS011;3183;51.010;6.898;2022-08-06T08:49:25;2.17;;;0.90;;
6300;SDS011;3183;51.010;6.898;2022-08-06T08:51:52;5.53;;;1.30;;
6300;SDS011;3183;51.010;6.898;2022-08-06T08:54:21;3.30;;;1.23;;
6300;SDS011;3183;51.010;6.898;2022-08-06T08:56:49;107.23;;;6.83;;
6300;SDS011;3183;51.010;6.898;2022-08-06T08:59:16;67.93;;;5.60;;
6300;SDS011;3183;51.010;6.898;2022-08-06T09:01:44;30.67;;;2.30;;
6300;SDS011;3183;51.010;6.898;2022-08-06T09:04:13;7.23;;;1.27;;
6300;SDS011;3183;51.010;6.898;2022-08-06T09:06:40;8.53;;;1.90;;
6300;SDS011;3183;51.010;6.898;2022-08-06T09:09:08;6.37;;;1.30;;
6300;SDS011;3183;51.010;6.898;2022-08-06T09:11:36;4.10;;;1.30;;
6300;SDS011;3183;51.010;6.898;2022-08-06T09:14:06;2.40;;;0.70;;
6300;SDS011;3183;51.010;6.898;2022-08-06T09:16:33;4.13;;;1.13;;
6300;SDS011;3183;51.010;6.898;2022-08-06T09:19:01;2.70;;;0.83;;
6300;SDS011;3183;51.010;6.898;2022-08-06T09:21:29;3.13;;;1.00;;
6300;SDS011;3183;51.010;6.898;2022-08-06T09:23:57;9.57;;;0.97;;
6300;SDS011;3183;51.010;6.898;2022-08-06T09:26:24;1.47;;;0.70;;
6300;SDS011;3183;51.010;6.898;2022-08-06T09:28:51;1.93;;;1.00;;
6300;SDS011;3183;51.010;6.898;2022-08-06T09:31:19;2.10;;;0.77;;
6300;SDS011;3183;51.010;6.898;2022-08-06T09:33:54;2.40;;;0.70;;
6300;SDS011;3183;51.010;6.898;2022-08-06T09:36:21;3.00;;;0.93;;
6300;SDS011;3183;51.010;6.898;2022-08-06T09:38:50;1.80;;;0.63;;
6300;SDS011;3183;51.010;6.898;2022-08-06T09:41:18;2.33;;;0.80;;
6300;SDS011;3183;51.010;6.898;2022-08-06T09:43:47;2.50;;;1.00;;
6300;SDS011;3183;51.010;6.898;2022-08-06T09:46:15;1.50;;;1.00;;
6300;SDS011;3183;51.010;6.898;2022-08-06T09:48:58;2.20;;;0.70;;
6300;SDS011;3183;51.010;6.898;2022-08-06T09:51:25;5.43;;;0.57;;
6300;SDS011;3183;51.010;6.898;2022-08-06T09:53:54;0.90;;;0.40;;
6300;SDS011;3183;51.010;6.898;2022-08-06T09:56:21;3.00;;;0.80;;
6300;SDS011;3183;51.010;6.898;2022-08-06T09:58:49;2.90;;;0.90;;
6300;SDS011;3183;51.010;6.898;2022-08-06T10:01:18;1.60;;;0.70;;
6300;SDS011;3183;51.010;6.898;2022-08-06T10:03:45;2.40;;;0.70;;
6300;SDS011;3183;51.010;6.898;2022-08-06T10:06:13;1.00;;;0.60;;
6300;SDS011;3183;51.010;6.898;2022-08-06T10:08:41;1.27;;;0.60;;
6300;SDS011;3183;51.010;6.898;2022-08-06T10:11:09;3.80;;;0.90;;
6300;SDS011;3183;51.010;6.898;2022-08-06T10:13:37;2.17;;;0.67;;
6300;SDS011;3183;51.010;6.898;2022-08-06T10:16:14;1.63;;;0.57;;
6300;SDS011;3183;51.010;6.898;2022-08-06T10:18:42;4.40;;;1.03;;
6300;SDS011;3183;51.010;6.898;2022-08-06T10:21:10;4.30;;;0.70;;
6300;SDS011;3183;51.010;6.898;2022-08-06T10:23:38;0.80;;;0.60;;
6300;SDS011;3183;51.010;6.898;2022-08-06T10:26:07;2.50;;;0.63;;
6300;SDS011;3183;51.010;6.898;2022-08-06T10:28:36;4.30;;;0.80;;
6300;SDS011;3183;51.010;6.898;2022-08-06T10:31:04;1.93;;;0.60;;
6300;SDS011;3183;51.010;6.898;2022-08-06T10:33:32;1.43;;;0.80;;
6300;SDS011;3183;51.010;6.898;2022-08-06T10:36:01;1.27;;;0.80;;
6300;SDS011;3183;51.010;6.898;2022-08-06T10:38:30;1.97;;;0.83;;
6300;SDS011;3183;51.010;6.898;2022-08-06T10:41:00;3.17;;;0.67;;
6300;SDS011;3183;51.010;6.898;2022-08-06T10:43:30;1.77;;;0.73;;
6300;SDS011;3183;51.010;6.898;2022-08-06T10:45:59;2.00;;;0.93;;
6300;SDS011;3183;51.010;6.898;2022-08-06T10:48:26;3.23;;;0.70;;
6300;SDS011;3183;51.010;6.898;2022-08-06T10:50:53;4.70;;;1.10;;
6300;SDS011;3183;51.010;6.898;2022-08-06T10:53:21;1.73;;;0.90;;
6300;SDS011;3183;51.010;6.898;2022-08-06T10:55:49;1.93;;;0.70;;
6300;SDS011;3183;51.010;6.898;2022-08-06T10:58:16;2.60;;;1.00;;
6300;SDS011;3183;51.010;6.898;2022-08-06T11:00:44;1.00;;;0.83;;
6300;SDS011;3183;51.010;6.898;2022-08-06T11:03:14;2.80;;;0.70;;
6300;SDS011;3183;51.010;6.898;2022-08-06T11:05:42;1.60;;;1.07;;
6300;SDS011;3183;51.010;6.898;2022-08-06T11:08:15;4.83;;;1.00;;
6300;SDS011;3183;51.010;6.898;2022-08-06T11:10:49;1.50;;;1.00;;
6300;SDS011;3183;51.010;6.898;2022-08-06T11:13:25;2.20;;;0.70;;
6300;SDS011;3183;51.010;6.898;2022-08-06T11:15:54;3.83;;;1.00;;
6300;SDS011;3183;51.010;6.898;2022-08-06T11:18:23;3.83;;;0.80;;
6300;SDS011;3183;51.010;6.898;2022-08-06T11:20:50;1.87;;;0.93;;
6300;SDS011;3183;51.010;6.898;2022-08-06T11:23:26;1.97;;;0.80;;
6300;SDS011;3183;51.010;6.898;2022-08-06T11:25:55;0.80;;;0.60;;
6300;SDS011;3183;51.010;6.898;2022-08-06T11:31:28;2.07;;;0.80;;
6300;SDS011;3183;51.010;6.898;2022-08-06T11:34:00;1.83;;;0.90;;
6300;SDS011;3183;51.010;6.898;2022-08-06T11:36:27;3.90;;;1.20;;
6300;SDS011;3183;51.010;6.898;2022-08-06T11:38:58;6.10;;;0.93;;
6300;SDS011;3183;51.010;6.898;2022-08-06T11:41:26;1.73;;;0.70;;
6300;SDS011;3183;51.010;6.898;2022-08-06T11:46:36;1.00;;;0.70;;
6300;SDS011;3183;51.010;6.898;2022-08-06T11:49:17;1.17;;;0.60;;
6300;SDS011;3183;51.010;6.898;2022-08-06T11:51:46;2.30;;;0.90;;
6300;SDS011;3183;51.010;6.898;2022-08-06T11:54:14;4.20;;;1.53;;
6300;SDS011;3183;51.010;6.898;2022-08-06T11:59:30;5.07;;;0.80;;
6300;SDS011;3183;51.010;6.898;2022-08-06T12:01:58;1.30;;;0.70;;
6300;SDS011;3183;51.010;6.898;2022-08-06T12:04:42;7.03;;;0.60;;
6300;SDS011;3183;51.010;6.898;2022-08-06T12:07:15;2.67;;;1.10;;
6300;SDS011;3183;51.010;6.898;2022-08-06T12:09:43;1.37;;;0.80;;
6300;SDS011;3183;51.010;6.898;2022-08-06T12:14:57;1.40;;;0.70;;
6300;SDS011;3183;51.010;6.898;2022-08-06T12:17:26;2.93;;;0.70;;
6300;SDS011;3183;51.010;6.898;2022-08-06T12:19:56;1.00;;;0.50;;
6300;SDS011;3183;51.010;6.898;2022-08-06T12:22:24;2.80;;;0.80;;
6300;SDS011;3183;51.010;6.898;2022-08-06T12:24:54;1.67;;;0.60;;
6300;SDS011;3183;51.010;6.898;2022-08-06T12:27:23;1.43;;;0.60;;
6300;SDS011;3183;51.010;6.898;2022-08-06T12:29:57;1.27;;;0.67;;
6300;SDS011;3183;51.010;6.898;2022-08-06T12:32:25;1.37;;;0.50;;
6300;SDS011;3183;51.010;6.898;2022-08-06T12:34:53;2.30;;;0.70;;
6300;SDS011;3183;51.010;6.898;2022-08-06T12:37:31;3.53;;;0.50;;
6300;SDS011;3183;51.010;6.898;2022-08-06T12:39:59;0.80;;;0.50;;
6300;SDS011;3183;51.010;6.898;2022-08-06T12:42:44;0.70;;;0.47;;
6300;SDS011;3183;51.010;6.898;2022-08-06T12:45:11;3.43;;;0.87;;
6300;SDS011;3183;51.010;6.898;2022-08-06T12:47:38;1.13;;;0.57;;
6300;SDS011;3183;51.010;6.898;2022-08-06T12:50:15;1.27;;;0.50;;
6300;SDS011;3183;51.010;6.898;2022-08-06T12:52:44;2.60;;;0.50;;
6300;SDS011;3183;51.010;6.898;2022-08-06T12:55:27;1.70;;;0.90;;
6300;SDS011;3183;51.010;6.898;2022-08-06T12:57:54;1.10;;;0.50;;
6300;SDS011;3183;51.010;6.898;2022-08-06T13:00:22;1.17;;;0.60;;
6300;SDS011;3183;51.010;6.898;2022-08-06T13:02:49;1.60;;;0.60;;
6300;SDS011;3183;51.010;6.898;2022-08-06T13:05:16;1.00;;;0.50;;
6300;SDS011;3183;51.010;6.898;2022-08-06T13:07:45;1.00;;;0.60;;
6300;SDS011;3183;51.010;6.898;2022-08-06T13:10:12;1.57;;;0.70;;
6300;SDS011;3183;51.010;6.898;2022-08-06T13:12:40;3.27;;;0.90;;
6300;SDS011;3183;51.010;6.898;2022-08-06T13:15:10;1.07;;;0.53;;
6300;SDS011;3183;51.010;6.898;2022-08-06T13:17:38;1.73;;;0.60;;
6300;SDS011;3183;51.010;6.898;2022-08-06T13:20:05;1.00;;;0.67;;
6300;SDS011;3183;51.010;6.898;2022-08-06T13:25:26;1.23;;;0.70;;
6300;SDS011;3183;51.010;6.898;2022-08-06T13:28:06;2.70;;;0.63;;
6300;SDS011;3183;51.010;6.898;2022-08-06T13:30:34;0.87;;;0.60;;
6300;SDS011;3183;51.010;6.898;2022-08-06T13:33:10;0.80;;;0.50;;
6300;SDS011;3183;51.010;6.898;2022-08-06T13:35:37;2.10;;;0.70;;
6300;SDS011;3183;51.010;6.898;2022-08-06T13:38:05;2.13;;;0.80;;
6300;SDS011;3183;51.010;6.898;2022-08-06T13:40:36;1.00;;;0.63;;
6300;SDS011;3183;51.010;6.898;2022-08-06T13:43:04;4.17;;;0.53;;
6300;SDS011;3183;51.010;6.898;2022-08-06T13:45:32;4.43;;;0.70;;
6300;SDS011;3183;51.010;6.898;2022-08-06T13:48:02;2.87;;;0.80;;
6300;SDS011;3183;51.010;6.898;2022-08-06T13:50:31;2.07;;;0.63;;
6300;SDS011;3183;51.010;6.898;2022-08-06T13:52:59;1.00;;;0.57;;
6300;SDS011;3183;51.010;6.898;2022-08-06T13:55:26;1.50;;;0.80;;
6300;SDS011;3183;51.010;6.898;2022-08-06T13:57:56;1.37;;;0.77;;
6300;SDS011;3183;51.010;6.898;2022-08-06T14:00:23;3.60;;;1.03;;
6300;SDS011;3183;51.010;6.898;2022-08-06T14:02:50;1.50;;;0.77;;
6300;SDS011;3183;51.010;6.898;2022-08-06T14:05:17;4.40;;;0.77;;
6300;SDS011;3183;51.010;6.898;2022-08-06T14:07:45;1.70;;;0.67;;
6300;SDS011;3183;51.010;6.898;2022-08-06T14:10:12;1.00;;;0.73;;
6300;SDS011;3183;51.010;6.898;2022-08-06T14:12:40;1.33;;;0.80;;
6300;SDS011;3183;51.010;6.898;2022-08-06T14:15:09;0.80;;;0.50;;
6300;SDS011;3183;51.010;6.898;2022-08-06T14:17:36;2.20;;;0.87;;
6300;SDS011;3183;51.010;6.898;2022-08-06T14:20:04;1.90;;;0.67;;
6300;SDS011;3183;51.010;6.898;2022-08-06T14:22:31;2.03;;;0.50;;
6300;SDS011;3183;51.010;6.898;2022-08-06T14:24:58;1.33;;;0.70;;
6300;SDS011;3183;51.010;6.898;2022-08-06T14:27:25;2.93;;;0.90;;
6300;SDS011;3183;51.010;6.898;2022-08-06T14:29:52;2.80;;;0.70;;
6300;SDS011;3183;51.010;6.898;2022-08-06T14:32:21;1.80;;;0.70;;
6300;SDS011;3183;51.010;6.898;2022-08-06T14:34:48;0.80;;;0.60;;
6300;SDS011;3183;51.010;6.898;2022-08-06T14:37:20;1.33;;;0.60;;
6300;SDS011;3183;51.010;6.898;2022-08-06T14:39:47;4.40;;;1.13;;
6300;SDS011;3183;51.010;6.898;2022-08-06T14:42:15;1.60;;;0.90;;
6300;SDS011;3183;51.010;6.898;2022-08-06T14:45:09;1.90;;;0.80;;
6300;SDS011;3183;51.010;6.898;2022-08-06T14:47:37;1.30;;;0.80;;
6300;SDS011;3183;51.010;6.898;2022-08-06T14:50:05;0.80;;;0.40;;
6300;SDS011;3183;51.010;6.898;2022-08-06T14:52:32;4.50;;;0.80;;
6300;SDS011;3183;51.010;6.898;2022-08-06T14:54:59;0.80;;;0.60;;
6300;SDS011;3183;51.010;6.898;2022-08-06T14:57:27;1.03;;;0.60;;
6300;SDS011;3183;51.010;6.898;2022-08-06T14:59:54;3.20;;;0.80;;
6300;SDS011;3183;51.010;6.898;2022-08-06T15:02:21;2.17;;;0.63;;
6300;SDS011;3183;51.010;6.898;2022-08-06T15:04:50;1.67;;;0.60;;
6300;SDS011;3183;51.010;6.898;2022-08-06T15:07:17;1.00;;;0.73;;
6300;SDS011;3183;51.010;6.898;2022-08-06T15:09:44;1.90;;;0.80;;
6300;SDS011;3183;51.010;6.898;2022-08-06T15:12:12;6.30;;;0.60;;
6300;SDS011;3183;51.010;6.898;2022-08-06T15:14:39;0.90;;;0.60;;
6300;SDS011;3183;51.010;6.898;2022-08-06T15:17:06;0.97;;;0.70;;
6300;SDS011;3183;51.010;6.898;2022-08-06T15:19:33;1.73;;;0.50;;
6300;SDS011;3183;51.010;6.898;2022-08-06T15:22:02;0.77;;;0.50;;
6300;SDS011;3183;51.010;6.898;2022-08-06T15:24:29;2.37;;;0.83;;
6300;SDS011;3183;51.010;6.898;2022-08-06T15:26:59;0.80;;;0.50;;
6300;SDS011;3183;51.010;6.898;2022-08-06T15:29:29;2.80;;;0.90;;
6300;SDS011;3183;51.010;6.898;2022-08-06T15:31:57;1.43;;;0.90;;
6300;SDS011;3183;51.010;6.898;2022-08-06T15:34:24;5.63;;;0.80;;
6300;SDS011;3183;51.010;6.898;2022-08-06T15:36:51;2.30;;;0.77;;
6300;SDS011;3183;51.010;6.898;2022-08-06T15:39:19;1.20;;;0.70;;